Time;durP1;ratioP1;P1;durP2;ratioP2;P2;SDS_P1;SDS_P2;PMS_P1;PMS_P2;Temp;Humidity;BMP_temperature;BMP_pressure;BME280_temperature;BME280_humidity;BME280_pressure;Samples;Min_cycle;Max_cycle;Signal;HPM_P1;HPM_P2
2021/01/07 00:01:25;;;;;;;;;;;;;;;-1.38;100.00;98735.31;4914185;29;19978;-86
2021/01/07 00:03:50;;;;;;;;;;;;;;;-1.41;100.00;98735.28;4905395;29;19925;-86
2021/01/07 00:06:15;;;;;;;;;;;;;;;-1.38;100.00;98730.25;4905488;29;20377;-86
2021/01/07 00:08:41;;;;;;;;;;;;;;;-1.37;100.00;98724.41;4904187;29;19945;-86
2021/01/07 00:11:07;;;;;;;;;;;;;;;-1.37;100.00;98724.41;4908419;29;19919;-85
2021/01/07 00:13:32;;;;;;;;;;;;;;;-1.40;100.00;98731.06;4905985;29;19918;-84
2021/01/07 00:15:58;;;;;;;;;;;;;;;-1.35;100.00;98717.66;4902003;29;19957;-86
2021/01/07 00:18:23;;;;;;;;;;;;;;;-1.35;100.00;98715.13;4903399;29;19962;-86
2021/01/07 00:20:49;;;;;;;;;;;;;;;-1.35;100.00;98719.34;4900814;29;19922;-84
2021/01/07 00:23:14;;;;;;;;;;;;;;;-1.34;100.00;98721.06;4912082;29;19915;-86
2021/01/07 00:25:40;;;;;;;;;;;;;;;-1.34;100.00;98716.84;4903117;29;19985;-85
2021/01/07 00:28:06;;;;;;;;;;;;;;;-1.38;100.00;98715.09;4904668;29;20511;-85
2021/01/07 00:30:32;;;;;;;;;;;;;;;-1.36;100.00;98713.44;4901009;29;19919;-83
2021/01/07 00:32:57;;;;;;;;;;;;;;;-1.37;100.00;98710.91;4902512;29;20347;-87
2021/01/07 00:35:22;;;;;;;;;;;;;;;-1.37;100.00;98709.25;4904064;29;20369;-87
2021/01/07 00:37:48;;;;;;;;;;;;;;;-1.36;100.00;98710.91;4902458;29;19941;-84
2021/01/07 00:40:13;;;;;;;;;;;;;;;-1.38;100.00;98711.75;4902878;29;20462;-84
2021/01/07 00:42:39;;;;;;;;;;;;;;;-1.39;100.00;98712.56;4900453;29;19929;-83
2021/01/07 00:45:04;;;;;;;;;;;;;;;-1.38;100.00;98705.00;4900709;29;19931;-84
2021/01/07 00:47:30;;;;;;;;;;;;;;;-1.32;100.00;98712.66;4899644;29;19919;-85
2021/01/07 00:49:55;;;;;;;;;;;;;;;-1.34;100.00;98711.78;4908664;29;19990;-85
2021/01/07 00:52:21;;;;;;;;;;;;;;;-1.33;100.00;98708.41;4899639;29;20034;-83
2021/01/07 00:54:46;;;;;;;;;;;;;;;-1.35;100.00;98706.72;4900973;29;19915;-86
2021/01/07 00:57:11;;;;;;;;;;;;;;;-1.33;100.00;98702.53;4897729;29;19974;-86
2021/01/07 00:59:37;;;;;;;;;;;;;;;-1.34;100.00;98710.94;4899612;29;20180;-83
2021/01/07 01:02:02;;;;;;;;;;;;;;;-1.26;100.00;98709.34;4896778;29;19990;-87
2021/01/07 01:04:28;;;;;;;;;;;;;;;-1.31;100.00;98711.81;4882521;29;19974;-84
2021/01/07 01:06:53;;;;;;;;;;;;;;;-1.30;100.00;98713.53;4898684;29;19919;-85
2021/01/07 01:09:19;;;;;;;;;;;;;;;-1.29;100.00;98711.84;4898534;29;19923;-85
2021/01/07 01:11:45;;;;;;;;;;;;;;;-1.28;100.00;98708.47;4899106;29;19923;-86
2021/01/07 01:14:12;;;;;;;;;;;;;;;-1.25;100.00;98700.94;4900866;29;19919;-83
2021/01/07 01:16:37;;;;;;;;;;;;;;;-1.23;100.00;98704.34;4882859;29;20407;-86
2021/01/07 01:19:03;;;;;;;;;;;;;;;-1.23;100.00;98700.94;4900056;29;19919;-84
2021/01/07 01:21:29;;;;;;;;;;;;;;;-1.17;100.00;98698.47;4899662;29;19923;-85
2021/01/07 01:23:54;;;;;;;;;;;;;;;-1.26;100.00;98710.19;4900042;29;19919;-85
2021/01/07 01:26:19;;;;;;;;;;;;;;;-1.17;100.00;98698.47;4899852;29;19919;-84
2021/01/07 01:28:45;;;;;;;;;;;;;;;-1.12;100.00;98700.25;4899087;29;19971;-87
2021/01/07 01:31:10;;;;;;;;;;;;;;;-1.14;100.00;98706.94;4907735;29;19926;-85
2021/01/07 01:33:36;;;;;;;;;;;;;;;-1.15;100.00;98701.88;4900635;29;19915;-86
2021/01/07 01:36:01;;;;;;;;;;;;;;;-1.17;100.00;98706.06;4898876;29;20137;-85
2021/01/07 01:38:27;;;;;;;;;;;;;;;-1.17;100.00;98701.00;4897210;29;20836;-85
2021/01/07 01:40:52;;;;;;;;;;;;;;;-1.12;100.00;98699.38;4907885;29;20440;-85
2021/01/07 01:43:17;;;;;;;;;;;;;;;-1.14;100.00;98703.56;4901429;29;20198;-84
2021/01/07 01:45:43;;;;;;;;;;;;;;;-1.18;100.00;98706.91;4899449;29;20301;-85
2021/01/07 01:48:08;;;;;;;;;;;;;;;-1.17;100.00;98709.44;4898412;29;19971;-83
2021/01/07 01:50:34;;;;;;;;;;;;;;;-1.25;100.00;98706.00;4898608;29;19923;-88
2021/01/07 01:52:59;;;;;;;;;;;;;;;-1.24;100.00;98706.84;4899784;29;19930;-87
2021/01/07 01:55:25;;;;;;;;;;;;;;;-1.19;100.00;98710.25;4900367;29;20049;-85
2021/01/07 01:57:50;;;;;;;;;;;;;;;-1.27;100.00;98708.50;4897992;29;20021;-85
2021/01/07 02:00:16;;;;;;;;;;;;;;;-1.21;100.00;98701.81;4900455;29;21097;-86
2021/01/07 02:02:41;;;;;;;;;;;;;;;-1.21;100.00;98697.59;4901098;29;19919;-84
2021/01/07 02:05:07;;;;;;;;;;;;;;;-1.22;100.00;98706.00;4897965;29;19919;-85
2021/01/07 02:07:32;;;;;;;;;;;;;;;-1.23;100.00;98703.47;4898553;29;20322;-87
2021/01/07 02:09:58;;;;;;;;;;;;;;;-1.24;100.00;98707.69;4900925;29;20018;-84
2021/01/07 02:12:23;;;;;;;;;;;;;;;-1.24;100.00;98712.72;4902103;29;19915;-84
2021/01/07 02:14:48;;;;;;;;;;;;;;;-1.23;100.00;98706.00;4911028;29;19919;-86
2021/01/07 02:17:15;;;;;;;;;;;;;;;-1.29;100.00;98700.03;4899536;29;19930;-85
2021/01/07 02:19:41;;;;;;;;;;;;;;;-1.24;100.00;98706.84;4901544;29;19919;-87
2021/01/07 02:22:06;;;;;;;;;;;;;;;-1.19;100.00;98705.19;4903400;29;19923;-86
2021/01/07 02:24:32;;;;;;;;;;;;;;;-1.20;100.00;98703.50;4903288;29;19970;-84
2021/01/07 02:27:08;;;;;;;;;;;;;;;-1.17;100.00;98708.59;4901691;29;19919;-84
2021/01/07 02:29:34;;;;;;;;;;;;;;;-1.15;100.00;98702.72;4903454;29;19919;-86
2021/01/07 02:31:59;;;;;;;;;;;;;;;-1.11;100.00;98704.44;4902231;29;19919;-83
2021/01/07 02:34:25;;;;;;;;;;;;;;;-1.09;100.00;98701.94;4903596;29;19974;-85
2021/01/07 02:36:50;;;;;;;;;;;;;;;-1.07;100.00;98700.28;4903596;29;19989;-83
2021/01/07 02:39:16;;;;;;;;;;;;;;;-1.00;100.00;98707.09;4903110;29;19919;-86
2021/01/07 02:41:48;;;;;;;;;;;;;;;-1.00;100.00;98706.22;4902366;29;19920;-86
2021/01/07 02:44:13;;;;;;;;;;;;;;;-1.08;100.00;98704.47;4903509;29;19947;-84
2021/01/07 02:46:39;;;;;;;;;;;;;;;-1.10;100.00;98705.28;4907028;29;19915;-84
2021/01/07 02:49:04;;;;;;;;;;;;;;;-1.09;100.00;98701.94;4905306;29;19966;-85
2021/01/07 02:51:29;;;;;;;;;;;;;;;-1.08;100.00;98698.56;4905259;29;20285;-84
2021/01/07 02:53:55;;;;;;;;;;;;;;;-1.00;100.00;98702.03;4904337;29;19927;-84
2021/01/07 02:56:20;;;;;;;;;;;;;;;-0.98;100.00;98700.38;4904765;29;19915;-85
2021/01/07 02:58:45;;;;;;;;;;;;;;;-1.08;100.00;98706.16;4905355;29;20355;-86
2021/01/07 03:01:11;;;;;;;;;;;;;;;-1.04;100.00;98697.78;4907155;29;19922;-86
2021/01/07 03:03:36;;;;;;;;;;;;;;;-0.99;100.00;98692.75;4906975;29;19919;-84
2021/01/07 03:06:02;;;;;;;;;;;;;;;-0.99;100.00;98693.59;4905601;29;19946;-84
2021/01/07 03:08:27;;;;;;;;;;;;;;;-0.97;100.00;98691.09;4903974;29;20404;-85
2021/01/07 03:10:52;;;;;;;;;;;;;;;-1.08;100.00;98689.31;4904833;29;19954;-84
2021/01/07 03:13:17;;;;;;;;;;;;;;;-1.01;100.00;98685.16;4905435;29;19914;-84
2021/01/07 03:15:43;;;;;;;;;;;;;;;-0.94;100.00;98681.00;4905342;29;19926;-87
2021/01/07 03:18:08;;;;;;;;;;;;;;;-0.91;100.00;98686.09;4906098;29;19931;-83
2021/01/07 03:20:34;;;;;;;;;;;;;;;-0.89;100.00;98682.75;4906966;29;20312;-84
2021/01/07 03:22:59;;;;;;;;;;;;;;;-1.02;100.00;98678.41;4903409;29;20366;-85
2021/01/07 03:25:24;;;;;;;;;;;;;;;-0.84;100.00;98677.75;4904517;29;19919;-86
2021/01/07 03:27:50;;;;;;;;;;;;;;;-0.95;100.00;98672.59;4905117;29;20516;-85
2021/01/07 03:30:15;;;;;;;;;;;;;;;-0.88;100.00;98671.78;4905992;29;19927;-84
2021/01/07 03:32:41;;;;;;;;;;;;;;;-0.79;100.00;98673.56;4888721;29;20009;-87
2021/01/07 03:35:06;;;;;;;;;;;;;;;-0.71;100.00;98673.59;4905998;29;20296;-86
2021/01/07 03:37:32;;;;;;;;;;;;;;;-0.71;100.00;98663.50;4912910;29;19942;-86
2021/01/07 03:39:57;;;;;;;;;;;;;;;-0.68;100.00;98656.78;4905227;29;19937;-85
2021/01/07 03:42:23;;;;;;;;;;;;;;;-0.82;100.00;98654.97;4905071;29;19929;-86
2021/01/07 03:44:48;;;;;;;;;;;;;;;-0.64;100.00;98660.16;4900165;29;19970;-85
2021/01/07 03:47:13;;;;;;;;;;;;;;;-0.58;100.00;98660.22;4901379;29;19971;-87
2021/01/07 03:49:39;;;;;;;;;;;;;;;-0.55;100.00;98657.72;4901892;29;19919;-85
2021/01/07 03:52:04;;;;;;;;;;;;;;;-0.58;100.00;98650.13;4901736;29;19951;-85
2021/01/07 03:54:30;;;;;;;;;;;;;;;-0.62;100.00;98653.44;4925057;29;19919;-86
2021/01/07 03:56:55;;;;;;;;;;;;;;;-0.70;100.00;98652.56;4902046;29;19929;-84
2021/01/07 03:59:20;;;;;;;;;;;;;;;-0.78;100.00;98652.47;4903072;29;19919;-84
2021/01/07 04:01:46;;;;;;;;;;;;;;;-0.62;100.00;98655.97;4900562;29;19923;-85
2021/01/07 04:04:12;;;;;;;;;;;;;;;-0.68;100.00;98651.72;4909330;29;19915;-85
2021/01/07 04:06:37;;;;;;;;;;;;;;;-0.62;100.00;98645.84;4900343;29;19915;-85
2021/01/07 04:09:03;;;;;;;;;;;;;;;-0.58;100.00;98645.06;4901664;29;20325;-85
2021/01/07 04:11:28;;;;;;;;;;;;;;;-0.46;100.00;98640.09;4897928;29;19919;-86
2021/01/07 04:13:54;;;;;;;;;;;;;;;-0.68;100.00;98643.31;4900243;29;20408;-85
2021/01/07 04:16:19;;;;;;;;;;;;;;;-0.68;100.00;98643.31;4901133;29;19919;-85
2021/01/07 04:18:44;;;;;;;;;;;;;;;-0.58;100.00;98639.16;4900159;29;19955;-87
2021/01/07 04:21:10;;;;;;;;;;;;;;;-0.59;100.00;98635.78;4900576;29;19923;-83
2021/01/07 04:23:35;;;;;;;;;;;;;;;-0.61;100.00;98629.88;4899787;29;19919;-86
2021/01/07 04:26:01;;;;;;;;;;;;;;;-0.61;100.00;98626.50;4901885;29;20162;-86
2021/01/07 04:28:27;;;;;;;;;;;;;;;-0.63;100.00;98621.41;4899729;29;19919;-85
2021/01/07 04:30:52;;;;;;;;;;;;;;;-0.70;100.00;98625.59;4899240;29;20336;-85
2021/01/07 04:33:17;;;;;;;;;;;;;;;-0.58;100.00;98624.81;4898650;29;20338;-86
2021/01/07 04:35:43;;;;;;;;;;;;;;;-0.70;100.00;98624.75;4902068;29;20005;-85
2021/01/07 04:38:08;;;;;;;;;;;;;;;-0.65;100.00;98615.50;4901253;29;19919;-84
2021/01/07 04:40:33;;;;;;;;;;;;;;;-0.70;100.00;98630.66;4905693;29;20337;-86
2021/01/07 04:42:59;;;;;;;;;;;;;;;-0.63;100.00;98618.91;4901969;29;19922;-83
2021/01/07 04:45:24;;;;;;;;;;;;;;;-0.54;100.00;98626.53;4902897;29;20400;-84
2021/01/07 04:47:50;;;;;;;;;;;;;;;-0.77;100.00;98625.53;4901072;29;19919;-84
2021/01/07 04:50:15;;;;;;;;;;;;;;;-0.68;100.00;98621.38;4901770;29;19926;-84
2021/01/07 04:52:41;;;;;;;;;;;;;;;-0.79;100.00;98617.94;4903317;29;19986;-84
2021/01/07 04:55:07;;;;;;;;;;;;;;;-0.79;100.00;98623.00;4901462;29;20544;-84
2021/01/07 04:57:33;;;;;;;;;;;;;;;-0.62;100.00;98625.63;4901985;29;19923;-84
2021/01/07 04:59:58;;;;;;;;;;;;;;;-0.64;100.00;98624.78;4901869;29;19935;-83
2021/01/07 05:02:25;;;;;;;;;;;;;;;-0.70;100.00;98619.69;4909445;29;20204;-83
2021/01/07 05:04:51;;;;;;;;;;;;;;;-0.57;100.00;98621.47;4910664;29;19994;-86
2021/01/07 05:07:20;;;;;;;;;;;;;;;-0.52;100.00;98614.75;4882918;29;19951;-84
2021/01/07 05:09:45;;;;;;;;;;;;;;;-0.58;100.00;98611.34;4898694;29;19990;-85
2021/01/07 05:12:12;;;;;;;;;;;;;;;-0.57;100.00;98616.41;4907780;29;20381;-85
2021/01/07 05:14:41;;;;;;;;;;;;;;;-0.54;100.00;98610.53;4899844;29;19941;-84
2021/01/07 05:17:08;;;;;;;;;;;;;;;-0.64;100.00;98604.53;4881996;29;20013;-85
2021/01/07 05:19:35;;;;;;;;;;;;;;;-0.44;100.00;98613.09;4908099;29;19925;-84
2021/01/07 05:22:00;;;;;;;;;;;;;;;-0.65;100.00;98607.91;4899524;29;19927;-85
2021/01/07 05:24:26;;;;;;;;;;;;;;;-0.46;100.00;98599.63;4881946;29;19971;-84
2021/01/07 05:26:51;;;;;;;;;;;;;;;-0.57;100.00;98598.72;4908319;29;19987;-82
2021/01/07 05:29:16;;;;;;;;;;;;;;;-0.63;100.00;98602.03;4901706;29;19918;-84
2021/01/07 05:31:49;;;;;;;;;;;;;;;-0.63;100.00;98603.72;4901043;29;20385;-84
2021/01/07 05:34:14;;;;;;;;;;;;;;;-0.62;100.00;98597.81;4901347;29;20033;-85
2021/01/07 05:36:39;;;;;;;;;;;;;;;-0.64;100.00;98602.00;4898116;29;19953;-84
2021/01/07 05:39:06;;;;;;;;;;;;;;;-0.48;100.00;98602.94;4899576;29;19966;-83
2021/01/07 05:41:31;;;;;;;;;;;;;;;-0.48;100.00;98601.28;4899846;29;19924;-84
2021/01/07 05:44:00;;;;;;;;;;;;;;;-0.49;100.00;98597.06;4901525;29;19923;-84
2021/01/07 05:46:26;;;;;;;;;;;;;;;-0.56;100.00;98600.38;4911611;29;19938;-84
2021/01/07 05:48:54;;;;;;;;;;;;;;;-0.53;100.00;98602.94;4906474;29;19922;-84
2021/01/07 05:51:22;;;;;;;;;;;;;;;-0.49;100.00;98608.84;4903974;29;19915;-84
2021/01/07 05:53:48;;;;;;;;;;;;;;;-0.52;100.00;98607.16;4903652;29;20625;-83
2021/01/07 05:56:13;;;;;;;;;;;;;;;-0.40;100.00;98608.06;4904747;29;19915;-84
2021/01/07 05:58:39;;;;;;;;;;;;;;;-0.40;100.00;98608.06;4904216;29;20389;-84
2021/01/07 06:01:04;;;;;;;;;;;;;;;-0.57;100.00;98613.88;4904517;29;20017;-84
2021/01/07 06:03:29;;;;;;;;;;;;;;;-0.70;100.00;98614.63;4913415;29;19919;-84
2021/01/07 06:05:55;;;;;;;;;;;;;;;-0.62;100.00;98607.94;4904407;29;20341;-83
2021/01/07 06:08:20;;;;;;;;;;;;;;;-0.53;100.00;98607.97;4903242;29;19919;-85
2021/01/07 06:10:46;;;;;;;;;;;;;;;-0.57;100.00;98608.81;4902922;29;19927;-84
2021/01/07 06:13:11;;;;;;;;;;;;;;;-0.47;100.00;98602.97;4904376;29;20067;-86
2021/01/07 06:15:37;;;;;;;;;;;;;;;-0.57;100.00;98603.78;4904885;29;20013;-83
2021/01/07 06:18:03;;;;;;;;;;;;;;;-0.48;100.00;98601.28;4905751;29;19915;-84
2021/01/07 06:20:28;;;;;;;;;;;;;;;-0.65;100.00;98602.84;4905919;29;19922;-86
2021/01/07 06:22:54;;;;;;;;;;;;;;;-0.53;100.00;98605.44;4928248;29;19919;-84
2021/01/07 06:25:20;;;;;;;;;;;;;;;-0.47;100.00;98602.97;4900997;29;20433;-85
2021/01/07 06:27:46;;;;;;;;;;;;;;;-0.58;100.00;98604.59;4904702;29;20021;-84
2021/01/07 06:30:12;;;;;;;;;;;;;;;-0.59;100.00;98602.91;4904647;29;19942;-85
2021/01/07 06:32:38;;;;;;;;;;;;;;;-0.56;100.00;98602.91;4911415;29;19915;-83
2021/01/07 06:35:07;;;;;;;;;;;;;;;-0.46;100.00;98594.56;4902772;29;19918;-84
2021/01/07 06:37:32;;;;;;;;;;;;;;;-0.54;100.00;98601.25;4904418;29;19930;-85
2021/01/07 06:39:58;;;;;;;;;;;;;;;-0.65;100.00;98602.84;4913288;29;19919;-84
2021/01/07 06:42:23;;;;;;;;;;;;;;;-0.52;100.00;98604.63;4905259;29;19929;-84
2021/01/07 06:44:49;;;;;;;;;;;;;;;-0.47;100.00;98602.97;4906220;29;20017;-84
2021/01/07 06:47:21;;;;;;;;;;;;;;;-0.27;100.00;98599.72;4904123;29;20285;-84
2021/01/07 06:49:50;;;;;;;;;;;;;;;-0.39;100.00;98603.00;4890176;29;19919;-84
2021/01/07 06:52:16;;;;;;;;;;;;;;;-0.25;100.00;98603.06;4905172;29;19925;-84
2021/01/07 06:54:41;;;;;;;;;;;;;;;-0.43;100.00;98599.63;4906656;29;19919;-84
2021/01/07 06:57:10;;;;;;;;;;;;;;;-0.53;100.00;98602.09;4911488;29;19974;-84
2021/01/07 06:59:36;;;;;;;;;;;;;;;-0.49;100.00;98603.81;4903471;29;20297;-84
2021/01/07 07:02:01;;;;;;;;;;;;;;;-0.67;100.00;98600.31;4903125;29;19923;-84
2021/01/07 07:04:27;;;;;;;;;;;;;;;-0.58;100.00;98603.75;4903577;29;20570;-86
2021/01/07 07:06:57;;;;;;;;;;;;;;;-0.62;100.00;98610.47;4903637;29;19916;-85
2021/01/07 07:09:23;;;;;;;;;;;;;;;-0.67;100.00;98604.53;4907377;29;20064;-83
2021/01/07 07:11:55;;;;;;;;;;;;;;;-0.45;100.00;98608.88;4909665;29;19941;-83
2021/01/07 07:14:21;;;;;;;;;;;;;;;-0.67;100.00;98599.47;4914192;29;19934;-84
2021/01/07 07:16:47;;;;;;;;;;;;;;;-0.66;100.00;98612.13;4906113;29;20445;-85
2021/01/07 07:19:23;;;;;;;;;;;;;;;-0.68;100.00;98603.69;4907610;29;20289;-84
2021/01/07 07:22:09;;;;;;;;;;;;;;;-0.69;100.00;98608.72;4893033;29;19929;-83
2021/01/07 07:24:40;;;;;;;;;;;;;;;-0.66;100.00;98621.41;4907195;29;20357;-85
2021/01/07 07:27:09;;;;;;;;;;;;;;;-0.64;100.00;98619.72;4903378;29;19923;-83
2021/01/07 07:29:35;;;;;;;;;;;;;;;-0.60;100.00;98616.38;4902558;29;20014;-85
2021/01/07 07:32:01;;;;;;;;;;;;;;;-0.57;100.00;98616.41;4907788;29;20435;-84
2021/01/07 07:34:30;;;;;;;;;;;;;;;-0.58;100.00;98614.69;4907521;29;19922;-84
2021/01/07 07:36:56;;;;;;;;;;;;;;;-0.65;100.00;98620.56;4906496;29;19919;-84
2021/01/07 07:39:25;;;;;;;;;;;;;;;-0.48;100.00;98629.13;4907391;29;20444;-84
2021/01/07 07:41:51;;;;;;;;;;;;;;;-0.31;100.00;98624.13;4905611;29;20215;-84
2021/01/07 07:44:16;;;;;;;;;;;;;;;-0.47;100.00;98623.19;4907922;29;19948;-85
2021/01/07 07:46:42;;;;;;;;;;;;;;;-0.48;100.00;98624.06;4909069;29;19998;-84
2021/01/07 07:49:10;;;;;;;;;;;;;;;-0.51;100.00;98628.22;4909041;29;20385;-85
2021/01/07 07:51:35;;;;;;;;;;;;;;;-0.37;100.00;98629.16;4911073;29;19922;-85
2021/01/07 07:54:05;;;;;;;;;;;;;;;-0.47;100.00;98628.25;4910968;29;19918;-85
2021/01/07 07:56:30;;;;;;;;;;;;;;;-0.51;100.00;98631.59;4917991;29;19937;-85
2021/01/07 07:59:03;;;;;;;;;;;;;;;-0.46;100.00;98629.97;4908175;29;20369;-84
2021/01/07 08:01:35;;;;;;;;;;;;;;;-0.58;100.00;98640.00;4909136;29;19934;-84
2021/01/07 08:04:00;;;;;;;;;;;;;;;-0.35;100.00;98636.75;4921787;29;19915;-85
2021/01/07 08:06:26;;;;;;;;;;;;;;;-0.34;100.00;98633.38;4915810;29;19914;-85
2021/01/07 08:08:51;;;;;;;;;;;;;;;-0.48;100.00;98645.94;4907406;29;21036;-85
2021/01/07 08:11:19;;;;;;;;;;;;;;;-0.50;100.00;98645.97;4907315;29;19926;-85
2021/01/07 08:13:44;;;;;;;;;;;;;;;-0.47;100.00;98642.59;4909177;29;20381;-84
2021/01/07 08:16:13;;;;;;;;;;;;;;;-0.46;100.00;98650.22;4909449;29;19925;-84
2021/01/07 08:18:38;;;;;;;;;;;;;;;-0.42;100.00;98646.00;4891701;29;19914;-84
2021/01/07 08:21:07;;;;;;;;;;;;;;;-0.38;100.00;98647.72;4906379;29;20304;-85
2021/01/07 08:23:33;;;;;;;;;;;;;;;-0.39;100.00;98651.06;4905588;29;20277;-85
2021/01/07 08:25:58;;;;;;;;;;;;;;;-0.31;100.00;98656.19;4907384;29;19926;-84
2021/01/07 08:28:36;;;;;;;;;;;;;;;-0.23;100.00;98652.00;4908610;29;19922;-85
2021/01/07 08:31:02;;;;;;;;;;;;;;;-0.23;100.00;98652.00;4911052;29;19919;-85
2021/01/07 08:33:28;;;;;;;;;;;;;;;-0.37;100.00;98648.56;4907661;29;19925;-85
2021/01/07 08:35:53;;;;;;;;;;;;;;;-0.31;100.00;98646.06;4909408;29;19919;-85
2021/01/07 08:38:22;;;;;;;;;;;;;;;-0.31;100.00;98646.06;4907882;29;19919;-84
2021/01/07 08:40:47;;;;;;;;;;;;;;;-0.28;100.00;98643.53;4907741;29;19923;-84
2021/01/07 08:43:13;;;;;;;;;;;;;;;-0.36;100.00;98640.16;4909006;29;20396;-84
2021/01/07 08:45:38;;;;;;;;;;;;;;;-0.37;100.00;98646.88;4907877;29;19927;-85
2021/01/07 08:48:07;;;;;;;;;;;;;;;-0.47;100.00;98645.97;4904013;29;19926;-84
2021/01/07 08:50:35;;;;;;;;;;;;;;;-0.34;100.00;98638.44;4903746;29;19915;-85
2021/01/07 08:53:06;;;;;;;;;;;;;;;-0.38;100.00;98642.66;4900696;29;19919;-84
2021/01/07 08:55:44;;;;;;;;;;;;;;;-0.23;100.00;98637.69;4903550;29;19969;-85
2021/01/07 08:58:10;;;;;;;;;;;;;;;-0.36;100.00;98637.63;4903679;29;20009;-84
2021/01/07 09:00:35;;;;;;;;;;;;;;;-0.54;100.00;98636.66;4903474;29;20010;-84
2021/01/07 09:03:01;;;;;;;;;;;;;;;-0.43;100.00;98635.03;4901856;29;20025;-85
2021/01/07 09:05:29;;;;;;;;;;;;;;;-0.47;100.00;98638.38;4908971;29;19954;-84
2021/01/07 09:08:10;;;;;;;;;;;;;;;-0.39;100.00;98635.06;4903205;29;19925;-85
2021/01/07 09:10:35;;;;;;;;;;;;;;;-0.34;100.00;98638.44;4916931;29;19962;-84
2021/01/07 09:13:22;;;;;;;;;;;;;;;-0.09;100.00;98635.22;4901541;29;20038;-84
2021/01/07 09:15:48;;;;;;;;;;;;;;;-0.14;100.00;98639.41;4919719;29;19921;-85
2021/01/07 09:18:16;;;;;;;;;;;;;;;-0.19;100.00;98643.59;4904559;29;20001;-84
2021/01/07 09:20:49;;;;;;;;;;;;;;;-0.11;100.00;98641.13;4900617;29;19919;-86
2021/01/07 09:23:15;;;;;;;;;;;;;;;-0.23;100.00;98642.75;4902867;29;20022;-85
2021/01/07 09:25:41;;;;;;;;;;;;;;;0.08;100.00;98639.50;4902911;29;19918;-85
2021/01/07 09:28:06;;;;;;;;;;;;;;;-0.11;100.00;98641.97;4903120;29;20461;-84
2021/01/07 09:30:32;;;;;;;;;;;;;;;-0.04;100.00;98636.09;4910261;29;19943;-85
2021/01/07 09:32:57;;;;;;;;;;;;;;;-0.04;100.00;98642.84;4898277;29;19923;-85
2021/01/07 09:35:23;;;;;;;;;;;;;;;0.06;100.00;98638.66;4898536;29;19919;-85
2021/01/07 09:37:49;;;;;;;;;;;;;;;0.07;100.00;98640.34;4901650;29;19919;-85
2021/01/07 09:40:14;;;;;;;;;;;;;;;-0.04;100.00;98651.28;4897798;29;19923;-84
2021/01/07 09:42:40;;;;;;;;;;;;;;;0.19;100.00;98641.25;4894549;29;20278;-84
2021/01/07 09:45:06;;;;;;;;;;;;;;;0.15;100.00;98644.59;4900028;29;19927;-84
2021/01/07 09:47:39;;;;;;;;;;;;;;;0.38;100.00;98642.13;4902454;29;19958;-84
2021/01/07 09:50:08;;;;;;;;;;;;;;;0.06;100.00;98639.50;4902289;29;20337;-84
2021/01/07 09:52:34;;;;;;;;;;;;;;;-0.15;100.00;98640.25;4902417;29;19955;-84
2021/01/07 09:55:03;;;;;;;;;;;;;;;0.02;100.00;98636.94;4911751;29;19926;-85
2021/01/07 09:57:29;;;;;;;;;;;;;;;0.24;100.00;98636.19;4887883;29;19919;-84
2021/01/07 09:59:54;;;;;;;;;;;;;;;-0.11;100.00;98641.97;4901696;29;19943;-84
2021/01/07 10:02:23;;;;;;;;;;;;;;;-0.18;100.00;98644.44;4899794;29;19923;-83
2021/01/07 10:04:48;;;;;;;;;;;;;;;-0.14;100.00;98646.16;4902465;29;19962;-85
2021/01/07 10:07:14;;;;;;;;;;;;;;;-0.20;100.00;98646.97;4902649;29;19950;-84
2021/01/07 10:09:40;;;;;;;;;;;;;;;-0.14;100.00;98636.88;4905942;29;19919;-83
2021/01/07 10:12:06;;;;;;;;;;;;;;;-0.10;100.00;98632.69;4907256;29;20468;-85
2021/01/07 10:14:31;;;;;;;;;;;;;;;0.02;100.00;98629.34;4900066;29;19919;-84
2021/01/07 10:16:58;;;;;;;;;;;;;;;-0.07;100.00;98635.22;4899758;29;19930;-84
2021/01/07 10:19:24;;;;;;;;;;;;;;;-0.20;100.00;98625.91;4906020;29;19919;-85
2021/01/07 10:21:59;;;;;;;;;;;;;;;-0.18;100.00;98630.13;4898703;29;19954;-84
2021/01/07 10:24:25;;;;;;;;;;;;;;;-0.18;100.00;98629.25;4921961;29;19919;-84
2021/01/07 10:26:53;;;;;;;;;;;;;;;-0.10;100.00;98625.09;4900951;29;20377;-84
2021/01/07 10:29:18;;;;;;;;;;;;;;;-0.14;100.00;98628.44;4905747;29;19930;-85
2021/01/07 10:31:43;;;;;;;;;;;;;;;-0.07;100.00;98620.91;4900782;29;20620;-84
2021/01/07 10:34:09;;;;;;;;;;;;;;;-0.08;100.00;98621.72;4904297;29;20474;-84
2021/01/07 10:36:35;;;;;;;;;;;;;;;-0.07;100.00;98620.03;4905943;29;19927;-85
2021/01/07 10:39:01;;;;;;;;;;;;;;;-0.07;100.00;98618.38;4903726;29;20002;-84
2021/01/07 10:41:28;;;;;;;;;;;;;;;-0.02;100.00;98608.25;4902278;29;20014;-84
2021/01/07 10:43:54;;;;;;;;;;;;;;;-0.07;100.00;98614.97;4900566;29;19922;-85
2021/01/07 10:46:19;;;;;;;;;;;;;;;-0.19;100.00;98618.28;4903390;29;19982;-85
2021/01/07 10:48:45;;;;;;;;;;;;;;;-0.10;100.00;98618.34;4902896;29;20496;-85
2021/01/07 10:51:10;;;;;;;;;;;;;;;-0.29;100.00;98622.47;4902513;29;21083;-85
2021/01/07 10:53:45;;;;;;;;;;;;;;;-0.39;100.00;98617.34;4906597;29;20277;-85
2021/01/07 10:56:33;;;;;;;;;;;;;;;-0.35;100.00;98621.59;4913953;29;19966;-85
2021/01/07 10:59:02;;;;;;;;;;;;;;;-0.29;100.00;98611.50;4920912;29;20395;-85
2021/01/07 11:01:47;;;;;;;;;;;;;;;-0.14;100.00;98603.13;4927964;29;19959;-85
2021/01/07 11:04:19;;;;;;;;;;;;;;;-0.25;100.00;98600.53;4905444;29;19919;-85
2021/01/07 11:06:53;;;;;;;;;;;;;;;-0.13;100.00;98597.25;4916503;29;19926;-85
2021/01/07 11:09:20;;;;;;;;;;;;;;;-0.23;100.00;98594.69;4905978;29;19923;-85
2021/01/07 11:11:45;;;;;;;;;;;;;;;-0.24;100.00;98589.59;4906257;29;19930;-85
2021/01/07 11:14:13;;;;;;;;;;;;;;;-0.08;100.00;98581.22;4906063;29;20360;-85
2021/01/07 11:16:42;;;;;;;;;;;;;;;-0.16;100.00;98582.91;4905654;29;19923;-85
2021/01/07 11:19:08;;;;;;;;;;;;;;;-0.19;100.00;98577.81;4890505;29;19919;-85
2021/01/07 11:21:34;;;;;;;;;;;;;;;-0.10;100.00;98575.31;4905084;29;19927;-85
2021/01/07 11:23:59;;;;;;;;;;;;;;;0.03;100.00;98572.84;4906329;29;19934;-85
2021/01/07 11:26:25;;;;;;;;;;;;;;;0.07;100.00;98574.50;4912900;29;19929;-85
2021/01/07 11:28:53;;;;;;;;;;;;;;;0.11;100.00;98566.09;4906783;29;19938;-85
2021/01/07 11:31:19;;;;;;;;;;;;;;;0.09;100.00;98575.38;4912280;29;19923;-85
2021/01/07 11:33:44;;;;;;;;;;;;;;;0.20;100.00;98573.72;4906650;29;19987;-85
2021/01/07 11:36:12;;;;;;;;;;;;;;;0.29;100.00;98571.19;4903589;29;19926;-85
2021/01/07 11:38:44;;;;;;;;;;;;;;;0.44;100.00;98564.50;4913570;29;19966;-85
2021/01/07 11:41:29;;;;;;;;;;;;;;;0.93;100.00;98560.28;4904966;29;20269;-85
2021/01/07 11:44:14;;;;;;;;;;;;;;;0.65;100.00;98559.44;4927172;29;19919;-86
2021/01/07 11:46:40;;;;;;;;;;;;;;;0.80;100.00;98558.63;4904830;29;19954;-84
2021/01/07 11:49:05;;;;;;;;;;;;;;;0.38;100.00;98557.72;4901566;29;19923;-85
2021/01/07 11:51:31;;;;;;;;;;;;;;;0.59;100.00;98554.34;4900294;29;19939;-84
2021/01/07 11:54:01;;;;;;;;;;;;;;;0.80;100.00;98548.47;4908902;29;20322;-84
2021/01/07 11:56:26;;;;;;;;;;;;;;;0.56;100.00;98544.22;4900772;29;19919;-85
2021/01/07 11:58:52;;;;;;;;;;;;;;;0.65;100.00;98549.31;4901807;29;19930;-85
2021/01/07 12:01:18;;;;;;;;;;;;;;;0.92;100.00;98542.56;4901610;29;20385;-84
2021/01/07 12:03:43;;;;;;;;;;;;;;;1.20;100.00;98534.03;4908235;29;19934;-82
2021/01/07 12:06:08;;;;;;;;;;;;;;;1.12;100.00;98535.75;4907956;29;19969;-84
2021/01/07 12:08:37;;;;;;;;;;;;;;;0.85;100.00;98541.72;4900326;29;19915;-84
2021/01/07 12:11:02;;;;;;;;;;;;;;;1.12;100.00;98534.91;4924390;29;20279;-84
2021/01/07 12:13:28;;;;;;;;;;;;;;;1.09;100.00;98530.69;4900351;29;19919;-84
2021/01/07 12:15:53;;;;;;;;;;;;;;;1.03;100.00;98528.19;4910799;29;19919;-84
2021/01/07 12:18:19;;;;;;;;;;;;;;;0.86;100.00;98523.09;4900000;29;19919;-84
2021/01/07 12:20:50;;;;;;;;;;;;;;;1.12;100.00;98519.69;4900057;29;19986;-84
2021/01/07 12:23:15;;;;;;;;;;;;;;;0.71;100.00;98518.03;4902333;29;20381;-84
2021/01/07 12:25:41;;;;;;;;;;;;;;;1.13;100.00;98512.09;4901326;29;19919;-84
2021/01/07 12:28:07;;;;;;;;;;;;;;;0.99;100.00;98518.88;4898168;29;20906;-84
2021/01/07 12:30:36;;;;;;;;;;;;;;;0.92;100.00;98507.06;4899131;29;19919;-82
2021/01/07 12:33:04;;;;;;;;;;;;;;;1.11;100.00;98508.69;4880955;29;19919;-84
2021/01/07 12:35:34;;;;;;;;;;;;;;;1.13;100.00;98507.00;4906970;29;20002;-83